Time;durP1;ratioP1;P1;durP2;ratioP2;P2;SDS_P1;SDS_P2;PMS_P1;PMS_P2;Temp;Humidity;BMP_temperature;BMP_pressure;BME280_temperature;BME280_humidity;BME280_pressure;Samples;Min_cycle;Max_cycle;Signal;HPM_P1;HPM_P2
2021/08/25 00:01:40;;;;;;;6.70;3.15;;;15.80;99.90;;;;;;5096368;28;20017;-70
2021/08/25 00:04:06;;;;;;;6.40;2.63;;;15.80;99.90;;;;;;5096440;28;20391;-70
2021/08/25 00:06:32;;;;;;;10.43;3.78;;;15.70;99.90;;;;;;5096418;28;20031;-70
2021/08/25 00:08:58;;;;;;;9.48;2.88;;;15.70;99.90;;;;;;5096205;28;20080;-70
2021/08/25 00:11:25;;;;;;;6.50;3.38;;;15.70;99.90;;;;;;5096241;28;20138;-70
2021/08/25 00:13:51;;;;;;;9.98;3.40;;;15.60;99.90;;;;;;5098453;28;20039;-70
2021/08/25 00:16:17;;;;;;;6.28;2.97;;;15.70;99.90;;;;;;5100030;28;20514;-70
2021/08/25 00:18:43;;;;;;;8.18;2.95;;;15.50;99.90;;;;;;5100201;28;20030;-70
2021/08/25 00:21:10;;;;;;;7.22;2.85;;;15.40;99.90;;;;;;5099821;28;20016;-70
2021/08/25 00:23:36;;;;;;;6.88;3.03;;;15.40;99.90;;;;;;5099819;28;20089;-69
2021/08/25 00:26:02;;;;;;;10.07;3.05;;;15.40;99.90;;;;;;5099743;28;20020;-70
2021/08/25 00:28:27;;;;;;;6.07;2.92;;;15.40;99.90;;;;;;5098555;28;20024;-70
2021/08/25 00:30:53;;;;;;;10.52;3.95;;;15.40;99.90;;;;;;5099862;28;20376;-70
2021/08/25 00:33:19;;;;;;;5.72;2.35;;;15.50;99.90;;;;;;5098257;28;20081;-70
2021/08/25 00:35:45;;;;;;;7.80;3.03;;;15.50;99.90;;;;;;5099519;28;20024;-70
2021/08/25 00:38:11;;;;;;;9.32;3.13;;;15.40;99.90;;;;;;5099497;28;20156;-70
2021/08/25 00:40:36;;;;;;;8.65;3.47;;;15.30;99.90;;;;;;5099527;28;20021;-70
2021/08/25 00:43:07;;;;;;;4.60;3.05;;;15.40;99.90;;;;;;5099723;28;20064;-70
2021/08/25 00:45:38;;;;;;;6.18;3.92;;;15.30;99.90;;;;;;5099394;28;20020;-70
2021/08/25 00:48:05;;;;;;;6.95;2.60;;;15.30;99.90;;;;;;5099733;28;20106;-70
2021/08/25 00:50:31;;;;;;;9.27;3.58;;;15.30;99.90;;;;;;5099339;28;20020;-70
2021/08/25 00:52:57;;;;;;;5.95;3.25;;;15.30;99.90;;;;;;5099200;28;20103;-70
2021/08/25 00:55:23;;;;;;;9.43;3.00;;;15.30;99.90;;;;;;5099016;28;20031;-70
2021/08/25 00:57:49;;;;;;;8.15;3.05;;;15.20;99.90;;;;;;5099434;28;20031;-70
2021/08/25 01:00:16;;;;;;;9.38;3.60;;;15.20;99.90;;;;;;5099129;28;20028;-70
2021/08/25 01:02:45;;;;;;;7.25;3.55;;;15.20;99.90;;;;;;5099285;28;20072;-70
2021/08/25 01:05:12;;;;;;;8.27;3.92;;;15.20;99.90;;;;;;5099034;28;20099;-69
2021/08/25 01:07:38;;;;;;;8.20;3.55;;;15.10;99.90;;;;;;5098866;28;20019;-70
2021/08/25 01:10:25;;;;;;;12.27;3.50;;;15.10;99.90;;;;;;5098992;28;20054;-70
2021/08/25 01:12:56;;;;;;;8.02;3.72;;;15.10;99.90;;;;;;5099119;28;20031;-70
2021/08/25 01:15:22;;;;;;;5.28;2.83;;;15.10;99.90;;;;;;5097670;28;20032;-70
2021/08/25 01:17:50;;;;;;;6.03;3.45;;;15.00;99.90;;;;;;5098860;28;20030;-69
2021/08/25 01:20:19;;;;;;;8.68;4.00;;;15.10;99.90;;;;;;5099085;28;20119;-70
2021/08/25 01:22:45;;;;;;;8.57;3.65;;;15.10;99.90;;;;;;5098379;28;20111;-70
2021/08/25 01:25:12;;;;;;;11.13;4.53;;;15.10;99.90;;;;;;5097638;28;20107;-69
2021/08/25 01:27:45;;;;;;;7.45;2.92;;;15.10;99.90;;;;;;5098656;28;20443;-69
2021/08/25 01:30:11;;;;;;;5.68;3.15;;;15.10;99.90;;;;;;5098800;28;20028;-70
2021/08/25 01:32:40;;;;;;;6.95;3.55;;;15.00;99.90;;;;;;5098357;28;20020;-70
2021/08/25 01:35:07;;;;;;;7.75;4.00;;;15.10;99.90;;;;;;5097229;28;20114;-70
2021/08/25 01:37:35;;;;;;;7.20;3.60;;;15.00;99.90;;;;;;5098246;28;20495;-70
2021/08/25 01:40:01;;;;;;;5.63;3.22;;;15.00;99.90;;;;;;5098430;28;20028;-70
2021/08/25 01:42:27;;;;;;;13.80;3.92;;;15.00;99.90;;;;;;5098451;28;20450;-70
2021/08/25 01:44:54;;;;;;;14.93;4.10;;;15.00;99.90;;;;;;5098679;28;20055;-70
2021/08/25 01:47:22;;;;;;;6.35;3.40;;;15.00;99.90;;;;;;5098259;28;20124;-70
2021/08/25 01:49:48;;;;;;;9.50;3.50;;;14.90;99.90;;;;;;5098452;28;20028;-70
2021/08/25 01:52:16;;;;;;;7.38;3.92;;;14.90;99.90;;;;;;5097933;28;20388;-70
2021/08/25 01:54:43;;;;;;;5.88;3.42;;;14.90;99.90;;;;;;5098118;28;20479;-70
2021/08/25 01:57:09;;;;;;;7.63;3.70;;;14.70;99.90;;;;;;5096601;28;20100;-70
2021/08/25 01:59:36;;;;;;;7.18;3.50;;;14.90;99.90;;;;;;5098262;28;20043;-70
2021/08/25 02:02:02;;;;;;;14.43;4.95;;;14.70;99.90;;;;;;5097956;28;20026;-70
2021/08/25 02:04:28;;;;;;;5.40;3.70;;;14.80;99.90;;;;;;5098101;28;20028;-70
2021/08/25 02:06:54;;;;;;;7.30;3.53;;;14.80;99.90;;;;;;5098040;28;20024;-70
2021/08/25 02:09:21;;;;;;;4.15;3.38;;;14.70;99.90;;;;;;5096330;28;20035;-70
2021/08/25 02:11:48;;;;;;;10.40;4.07;;;14.70;99.90;;;;;;5097740;28;20056;-70
2021/08/25 02:14:14;;;;;;;7.65;3.88;;;14.70;99.90;;;;;;5097888;28;20476;-70
2021/08/25 02:16:40;;;;;;;7.78;3.80;;;14.70;99.90;;;;;;5097685;28;20035;-70
2021/08/25 02:19:06;;;;;;;13.32;4.63;;;14.60;99.90;;;;;;5097843;28;20408;-70
2021/08/25 02:21:32;;;;;;;7.13;3.90;;;14.70;99.90;;;;;;5097581;28;20079;-70
2021/08/25 02:23:58;;;;;;;6.78;3.55;;;14.60;99.90;;;;;;5095985;28;20503;-70
2021/08/25 02:26:24;;;;;;;10.32;4.22;;;14.60;99.90;;;;;;5097644;28;20039;-70
2021/08/25 02:28:52;;;;;;;9.82;3.58;;;14.60;99.90;;;;;;5097730;28;20171;-70
2021/08/25 02:31:19;;;;;;;12.40;4.93;;;14.60;99.90;;;;;;5097322;28;20077;-70
2021/08/25 02:33:46;;;;;;;9.57;3.78;;;14.60;99.90;;;;;;5097329;28;20035;-69
2021/08/25 02:36:12;;;;;;;10.15;4.53;;;14.40;99.90;;;;;;5097067;28;20491;-70
2021/08/25 02:38:39;;;;;;;14.57;4.82;;;14.40;99.90;;;;;;5097014;28;20031;-70
2021/08/25 02:41:08;;;;;;;13.10;5.35;;;14.60;99.90;;;;;;5097151;28;20044;-70
2021/08/25 02:43:34;;;;;;;8.07;4.25;;;14.40;99.90;;;;;;5097330;28;20027;-69
2021/08/25 02:46:01;;;;;;;7.68;4.63;;;14.50;99.90;;;;;;5095841;28;20020;-69
2021/08/25 02:48:27;;;;;;;7.30;4.07;;;14.50;99.90;;;;;;5097228;28;20050;-69
2021/08/25 02:50:53;;;;;;;18.67;5.20;;;14.60;99.90;;;;;;5097170;28;20032;-70
2021/08/25 02:53:19;;;;;;;12.02;4.45;;;14.50;99.90;;;;;;5096745;28;20027;-70
2021/08/25 02:55:46;;;;;;;20.35;4.28;;;14.60;99.90;;;;;;5096832;28;20051;-70
2021/08/25 02:58:12;;;;;;;9.38;4.03;;;14.40;99.90;;;;;;5095748;28;20024;-70
2021/08/25 03:00:38;;;;;;;9.27;3.85;;;14.50;99.90;;;;;;5097263;28;20012;-70
2021/08/25 03:03:04;;;;;;;6.45;3.75;;;14.40;99.90;;;;;;5096897;28;20026;-70
2021/08/25 03:05:30;;;;;;;9.23;4.47;;;14.40;99.90;;;;;;5097130;28;20387;-70
2021/08/25 03:07:56;;;;;;;15.32;4.68;;;14.50;99.90;;;;;;5096660;28;20407;-70
2021/08/25 03:10:22;;;;;;;7.72;4.10;;;14.40;99.90;;;;;;5095673;28;20024;-70
2021/08/25 03:12:48;;;;;;;9.68;4.85;;;14.40;99.90;;;;;;5096744;28;20028;-70
2021/08/25 03:15:14;;;;;;;7.65;4.68;;;14.40;99.90;;;;;;5096900;28;20503;-70
2021/08/25 03:17:40;;;;;;;9.02;4.38;;;14.40;99.90;;;;;;5096890;28;20537;-70
2021/08/25 03:20:08;;;;;;;12.63;4.75;;;14.30;99.90;;;;;;5096822;28;20031;-70
2021/08/25 03:22:34;;;;;;;10.35;5.13;;;14.30;99.90;;;;;;5096679;28;20024;-70
2021/08/25 03:25:01;;;;;;;8.98;4.30;;;14.20;99.90;;;;;;5096694;28;20024;-70
2021/08/25 03:27:27;;;;;;;9.35;4.28;;;14.30;99.90;;;;;;5095418;28;20024;-70
2021/08/25 03:29:53;;;;;;;10.68;5.28;;;14.30;99.90;;;;;;5095532;28;20123;-70
2021/08/25 03:32:19;;;;;;;10.90;5.43;;;14.20;99.90;;;;;;5096635;28;20452;-70
2021/08/25 03:34:45;;;;;;;9.88;4.78;;;14.20;99.90;;;;;;5096506;28;20035;-70
2021/08/25 03:37:10;;;;;;;8.32;4.70;;;14.30;99.90;;;;;;5096480;28;20021;-70
2021/08/25 03:39:37;;;;;;;9.35;4.78;;;14.20;99.90;;;;;;5096551;28;20103;-70
2021/08/25 03:42:03;;;;;;;12.98;5.20;;;14.30;99.90;;;;;;5096762;28;20035;-70
2021/08/25 03:44:29;;;;;;;6.40;4.45;;;14.10;99.90;;;;;;5096495;28;20086;-70
2021/08/25 03:46:55;;;;;;;7.78;4.53;;;14.10;99.90;;;;;;5096583;28;20028;-70
2021/08/25 03:49:20;;;;;;;11.75;4.97;;;14.00;99.90;;;;;;5099384;28;20020;-70
2021/08/25 03:51:46;;;;;;;7.72;4.85;;;14.10;99.90;;;;;;5100615;28;20035;-70
2021/08/25 03:54:12;;;;;;;9.00;5.45;;;14.00;99.90;;;;;;5099933;28;20024;-70
2021/08/25 03:56:38;;;;;;;8.50;5.13;;;14.10;99.90;;;;;;5100364;28;20048;-70
2021/08/25 03:59:04;;;;;;;7.40;4.90;;;13.90;99.90;;;;;;5100463;28;20037;-70
2021/08/25 04:01:30;;;;;;;10.18;4.50;;;14.00;99.90;;;;;;5100452;28;20024;-70
2021/08/25 04:03:56;;;;;;;7.53;4.57;;;13.90;99.90;;;;;;5100235;28;20019;-70
2021/08/25 04:06:22;;;;;;;9.57;5.32;;;14.00;99.90;;;;;;5100650;28;20471;-70
2021/08/25 04:08:48;;;;;;;6.35;4.70;;;13.90;99.90;;;;;;5099843;28;20476;-70
2021/08/25 04:11:20;;;;;;;9.45;5.63;;;13.90;99.90;;;;;;5100202;28;20024;-70
2021/08/25 04:13:46;;;;;;;10.95;5.50;;;13.70;99.90;;;;;;5100218;28;20510;-70
2021/08/25 04:16:13;;;;;;;8.43;4.72;;;13.80;99.90;;;;;;5098797;28;20021;-70
2021/08/25 04:18:39;;;;;;;7.55;4.63;;;13.90;99.90;;;;;;5100192;28;20094;-69
2021/08/25 04:21:04;;;;;;;10.98;5.22;;;13.70;99.90;;;;;;5099947;28;20091;-70
2021/08/25 04:23:30;;;;;;;14.52;4.93;;;13.70;99.90;;;;;;5099797;28;20066;-69
2021/08/25 04:25:56;;;;;;;6.47;4.32;;;13.70;99.90;;;;;;5098445;28;20028;-70
2021/08/25 04:28:22;;;;;;;10.18;5.68;;;13.70;99.90;;;;;;5100218;28;20486;-70
2021/08/25 04:30:48;;;;;;;13.15;5.38;;;13.70;99.90;;;;;;5099864;28;20024;-70
2021/08/25 04:33:14;;;;;;;6.28;5.22;;;13.60;99.90;;;;;;5099647;28;20073;-70
2021/08/25 04:35:39;;;;;;;6.40;4.68;;;13.60;99.90;;;;;;5099622;28;20070;-70
2021/08/25 04:38:05;;;;;;;7.25;4.45;;;13.60;99.90;;;;;;5099629;28;20012;-70
2021/08/25 04:40:31;;;;;;;14.48;7.50;;;13.60;99.90;;;;;;5098158;28;20479;-70
2021/08/25 04:42:57;;;;;;;8.05;5.45;;;13.70;99.90;;;;;;5099656;28;20023;-70
2021/08/25 04:45:23;;;;;;;12.27;6.30;;;13.60;99.90;;;;;;5099800;28;20032;-70
2021/08/25 04:47:49;;;;;;;22.67;6.00;;;13.60;99.90;;;;;;5099662;28;20020;-70
2021/08/25 04:50:15;;;;;;;10.80;5.40;;;13.70;99.90;;;;;;5099548;28;20036;-70
2021/08/25 04:52:41;;;;;;;11.98;5.70;;;13.50;99.90;;;;;;5099109;28;20023;-70
2021/08/25 04:55:07;;;;;;;9.93;5.68;;;13.40;99.90;;;;;;5097766;28;20024;-70
2021/08/25 04:57:33;;;;;;;10.05;4.35;;;13.50;99.90;;;;;;5097816;28;20052;-70
2021/08/25 04:59:59;;;;;;;11.15;6.28;;;13.50;99.90;;;;;;5099079;28;20488;-70
2021/08/25 05:02:25;;;;;;;11.75;6.03;;;13.40;99.90;;;;;;5099355;28;20016;-70
2021/08/25 05:04:51;;;;;;;11.90;5.38;;;13.40;99.90;;;;;;5099485;28;20035;-70
2021/08/25 05:07:16;;;;;;;8.48;5.38;;;13.50;99.90;;;;;;5098982;28;20024;-70
2021/08/25 05:09:42;;;;;;;9.00;5.72;;;13.50;99.90;;;;;;5096280;28;20028;-70
2021/08/25 05:12:08;;;;;;;10.32;5.82;;;13.40;99.90;;;;;;5112242;27;20051;-70
2021/08/25 05:14:37;;;;;;;8.15;5.65;;;13.40;99.90;;;;;;5098290;28;20106;-70
2021/08/25 05:17:03;;;;;;;11.07;5.88;;;13.50;99.90;;;;;;5100853;28;20016;-70
2021/08/25 05:19:30;;;;;;;7.97;5.88;;;13.40;99.90;;;;;;5098512;28;20021;-70
2021/08/25 05:21:55;;;;;;;9.15;5.75;;;13.40;99.90;;;;;;5098799;28;20017;-70
2021/08/25 05:24:21;;;;;;;9.02;5.00;;;13.30;99.90;;;;;;5098470;28;20150;-70
2021/08/25 05:26:47;;;;;;;8.85;5.35;;;13.40;99.90;;;;;;5097417;28;20476;-70
2021/08/25 05:29:13;;;;;;;10.85;6.05;;;13.30;99.90;;;;;;5097986;28;20032;-70
2021/08/25 05:31:39;;;;;;;9.23;6.28;;;13.40;99.90;;;;;;5097591;28;20016;-70
2021/08/25 05:34:05;;;;;;;10.45;5.72;;;13.30;99.90;;;;;;5098635;28;20031;-61
2021/08/25 05:36:31;;;;;;;10.35;5.68;;;13.10;99.90;;;;;;5098536;28;20024;-70
2021/08/25 05:38:57;;;;;;;6.80;4.70;;;13.40;99.90;;;;;;5096605;28;20055;-70
2021/08/25 05:41:23;;;;;;;11.98;6.43;;;13.40;99.90;;;;;;5098602;28;20027;-70
2021/08/25 05:43:48;;;;;;;7.95;4.32;;;13.30;99.90;;;;;;5098494;28;20468;-70
2021/08/25 05:46:15;;;;;;;10.30;5.63;;;13.50;99.90;;;;;;5098406;28;20077;-70
2021/08/25 05:48:41;;;;;;;10.43;6.28;;;13.40;99.90;;;;;;5098289;28;20020;-70
2021/08/25 05:51:07;;;;;;;10.10;5.90;;;13.40;99.90;;;;;;5098245;28;20146;-70
2021/08/25 05:53:32;;;;;;;6.00;4.60;;;13.50;99.90;;;;;;5097613;28;20029;-70
2021/08/25 05:55:58;;;;;;;8.10;4.85;;;13.60;99.90;;;;;;5098064;28;20036;-70
2021/08/25 05:58:24;;;;;;;11.18;6.30;;;13.70;99.90;;;;;;5098057;28;20099;-70
2021/08/25 06:00:50;;;;;;;11.88;5.43;;;13.80;99.90;;;;;;5098256;28;20017;-70
2021/08/25 06:03:15;;;;;;;8.07;5.60;;;13.90;99.90;;;;;;5097858;28;20026;-70
2021/08/25 06:05:41;;;;;;;7.05;4.43;;;13.90;99.90;;;;;;5098121;28;20020;-70
2021/08/25 06:08:07;;;;;;;11.82;5.25;;;14.00;99.90;;;;;;5097430;28;20023;-70
2021/08/25 06:10:33;;;;;;;8.00;5.05;;;14.10;99.90;;;;;;5097575;28;20077;-70
2021/08/25 06:12:59;;;;;;;5.88;4.55;;;14.30;99.90;;;;;;5097469;28;20028;-70
2021/08/25 06:15:25;;;;;;;5.53;4.68;;;14.30;99.90;;;;;;5097960;28;20028;-70
2021/08/25 06:17:51;;;;;;;9.18;4.88;;;14.60;99.90;;;;;;5097828;28;20024;-70
2021/08/25 06:20:16;;;;;;;9.68;5.57;;;14.80;99.90;;;;;;5097878;28;20016;-70
2021/08/25 06:22:42;;;;;;;8.57;4.75;;;14.90;99.90;;;;;;5097314;28;20032;-70
2021/08/25 06:25:09;;;;;;;8.98;5.05;;;15.00;99.90;;;;;;5097683;28;20031;-70
2021/08/25 06:27:35;;;;;;;10.40;4.22;;;15.20;99.90;;;;;;5097461;28;20157;-70
2021/08/25 06:30:01;;;;;;;6.03;3.97;;;15.30;99.90;;;;;;5097654;28;20032;-70
2021/08/25 06:32:27;;;;;;;7.85;5.18;;;15.50;99.90;;;;;;5097330;28;20035;-70
2021/08/25 06:34:52;;;;;;;9.63;4.15;;;15.60;99.90;;;;;;5097525;28;20028;-70
2021/08/25 06:37:18;;;;;;;8.23;4.85;;;15.80;99.90;;;;;;5097121;28;20069;-70
2021/08/25 06:39:44;;;;;;;7.13;4.05;;;15.90;99.90;;;;;;5097391;28;20077;-70
2021/08/25 06:42:10;;;;;;;6.88;4.13;;;16.10;99.90;;;;;;5097302;28;20024;-70
2021/08/25 06:44:36;;;;;;;6.53;4.43;;;16.20;99.90;;;;;;5097548;28;20036;-70
2021/08/25 06:47:02;;;;;;;5.88;4.10;;;16.50;99.90;;;;;;5097265;28;20479;-70
2021/08/25 06:49:27;;;;;;;10.75;4.78;;;16.60;99.90;;;;;;5097338;28;20030;-70
2021/08/25 06:51:53;;;;;;;7.63;4.05;;;16.70;99.90;;;;;;5097162;28;20031;-70
2021/08/25 06:54:19;;;;;;;6.30;4.38;;;17.00;99.90;;;;;;5097353;28;20476;-70
2021/08/25 06:56:45;;;;;;;9.15;4.97;;;17.10;99.90;;;;;;5096435;28;20032;-70
2021/08/25 06:59:11;;;;;;;9.27;4.75;;;17.20;99.90;;;;;;5096323;28;20018;-70
2021/08/25 07:01:37;;;;;;;7.07;4.63;;;17.20;99.90;;;;;;5096136;28;20020;-70
2021/08/25 07:04:03;;;;;;;6.82;4.38;;;17.30;99.90;;;;;;5096333;28;20391;-70
2021/08/25 07:06:29;;;;;;;6.85;4.60;;;17.40;99.90;;;;;;5096172;28;20020;-70
2021/08/25 07:08:54;;;;;;;10.10;4.60;;;17.40;99.90;;;;;;5095882;28;20016;-70
2021/08/25 07:11:20;;;;;;;7.22;3.97;;;17.40;99.90;;;;;;5096089;28;20107;-70
2021/08/25 07:13:46;;;;;;;16.02;4.95;;;17.50;99.90;;;;;;5096182;28;20017;-70
2021/08/25 07:16:14;;;;;;;8.20;5.05;;;17.70;99.90;;;;;;5095979;28;20024;-70
2021/08/25 07:18:43;;;;;;;3.85;3.50;;;17.80;99.90;;;;;;5094800;28;20381;-70
2021/08/25 07:21:12;;;;;;;6.90;4.10;;;17.90;99.90;;;;;;5095795;28;20396;-70
2021/08/25 07:23:38;;;;;;;6.53;4.55;;;18.00;99.90;;;;;;5094426;28;20024;-70
2021/08/25 07:26:04;;;;;;;7.97;4.25;;;18.00;99.90;;;;;;5095667;28;20113;-70
2021/08/25 07:28:30;;;;;;;8.55;4.72;;;18.10;99.90;;;;;;5094477;28;20505;-70
2021/08/25 07:30:56;;;;;;;6.43;4.32;;;18.20;99.90;;;;;;5095782;28;20058;-70
2021/08/25 07:33:22;;;;;;;6.22;4.20;;;18.30;99.90;;;;;;5095757;28;20024;-70
2021/08/25 07:35:49;;;;;;;11.43;4.07;;;18.30;99.90;;;;;;5095503;28;20115;-70
2021/08/25 07:38:16;;;;;;;8.10;4.35;;;18.40;99.90;;;;;;5095475;28;20476;-70
2021/08/25 07:40:43;;;;;;;7.47;3.75;;;18.50;99.90;;;;;;5095609;28;20032;-70
2021/08/25 07:43:09;;;;;;;4.50;4.00;;;18.70;99.90;;;;;;5095925;28;20020;-70
2021/08/25 07:45:36;;;;;;;6.35;4.60;;;18.80;99.90;;;;;;5095547;28;20029;-70
2021/08/25 07:48:02;;;;;;;8.15;4.95;;;18.80;99.90;;;;;;5095680;28;20020;-70
2021/08/25 07:50:28;;;;;;;8.65;5.03;;;18.70;99.90;;;;;;5095510;28;20032;-70
2021/08/25 07:52:54;;;;;;;8.73;4.57;;;18.80;99.90;;;;;;5095362;28;20031;-70
2021/08/25 07:55:20;;;;;;;8.40;3.88;;;19.00;99.90;;;;;;5047731;28;1352671;-70
2021/08/25 07:57:45;;;;;;;13.35;4.68;;;19.00;99.90;;;;;;5096553;28;20025;-70
2021/08/25 08:00:12;;;;;;;4.38;3.67;;;19.10;99.90;;;;;;5096312;28;20541;-70
2021/08/25 08:02:37;;;;;;;6.57;4.07;;;19.20;99.90;;;;;;5095030;28;20024;-70
2021/08/25 08:05:07;;;;;;;7.72;3.22;;;19.30;99.90;;;;;;5096264;28;20073;-70
2021/08/25 08:07:32;;;;;;;9.95;4.93;;;19.40;99.90;;;;;;5096277;28;20027;-69
2021/08/25 08:09:58;;;;;;;5.13;3.67;;;19.60;99.90;;;;;;5096048;28;20020;-70
2021/08/25 08:12:24;;;;;;;5.75;3.80;;;19.80;99.90;;;;;;5096254;28;20476;-70
2021/08/25 08:14:50;;;;;;;9.63;4.95;;;20.00;99.90;;;;;;5096321;28;20099;-70
2021/08/25 08:17:16;;;;;;;6.60;4.03;;;20.30;99.90;;;;;;5096384;28;20024;-70
2021/08/25 08:19:42;;;;;;;3.58;2.80;;;20.50;99.90;;;;;;5096143;28;20028;-70
2021/08/25 08:22:08;;;;;;;4.57;3.60;;;20.80;99.90;;;;;;5096024;28;20549;-70
2021/08/25 08:24:34;;;;;;;6.60;3.67;;;21.30;99.90;;;;;;5095910;28;20038;-70
2021/08/25 08:27:02;;;;;;;13.75;4.20;;;;;;;;;;5096278;28;20025;-70
2021/08/25 08:29:28;;;;;;;4.65;3.22;;;22.40;99.90;;;;;;5096077;28;20035;-70
2021/08/25 08:31:54;;;;;;;4.93;3.78;;;22.80;99.90;;;;;;5096064;28;20546;-70
2021/08/25 08:34:20;;;;;;;5.32;3.65;;;23.10;99.90;;;;;;5097052;28;20039;-70
2021/08/25 08:36:46;;;;;;;7.47;4.35;;;23.20;99.90;;;;;;5099763;28;20023;-70
2021/08/25 08:39:13;;;;;;;7.68;3.78;;;23.30;99.90;;;;;;5099233;28;20107;-70
2021/08/25 08:41:40;;;;;;;4.72;3.53;;;23.70;99.90;;;;;;5099662;28;20103;-70
2021/08/25 08:44:10;;;;;;;4.93;3.28;;;24.00;99.90;;;;;;5099501;28;20032;-70
2021/08/25 08:46:39;;;;;;;4.40;2.95;;;24.30;99.90;;;;;;5099527;28;20016;-70
2021/08/25 08:49:08;;;;;;;4.75;3.20;;;24.80;99.90;;;;;;5099361;28;20020;-70
2021/08/25 08:51:36;;;;;;;5.82;2.88;;;25.20;99.90;;;;;;5099390;28;20016;-70
2021/08/25 08:54:03;;;;;;;7.68;3.05;;;25.30;99.90;;;;;;5098776;28;20035;-70
2021/08/25 08:56:28;;;;;;;7.00;3.25;;;25.60;99.90;;;;;;5099303;28;20068;-71
2021/08/25 08:58:56;;;;;;;4.53;2.78;;;25.80;99.90;;;;;;5099306;28;20486;-71
2021/08/25 09:01:22;;;;;;;6.30;3.50;;;26.00;99.90;;;;;;5099483;28;20016;-70
2021/08/25 09:03:48;;;;;;;4.15;3.15;;;26.20;99.90;;;;;;5099539;28;20103;-70
2021/08/25 09:06:14;;;;;;;5.60;2.83;;;26.70;99.90;;;;;;5099323;28;20067;-70
2021/08/25 09:08:41;;;;;;;5.25;2.95;;;26.70;99.90;;;;;;5098541;28;20024;-70
2021/08/25 09:11:13;;;;;;;4.93;2.75;;;26.90;99.90;;;;;;5097835;28;20357;-70
2021/08/25 09:13:50;;;;;;;9.10;3.30;;;;;;;;;;5099373;28;20052;-70
2021/08/25 09:16:34;;;;;;;4.35;2.83;;;27.20;99.90;;;;;;5098752;28;20028;-70
2021/08/25 09:19:00;;;;;;;7.57;3.17;;;27.20;99.90;;;;;;5098873;28;20476;-70
2021/08/25 09:21:38;;;;;;;2.80;2.42;;;27.20;99.90;;;;;;5098714;28;20020;-70
2021/08/25 09:24:07;;;;;;;4.05;2.20;;;27.20;99.90;;;;;;5097307;28;20400;-70
2021/08/25 09:26:35;;;;;;;4.97;3.30;;;;;;;;;;5098769;28;20022;-70
2021/08/25 09:29:18;;;;;;;4.07;3.20;;;27.50;99.90;;;;;;5098741;28;20034;-70
2021/08/25 09:31:48;;;;;;;6.30;2.30;;;27.80;99.90;;;;;;5097237;28;20050;-70
2021/08/25 09:34:33;;;;;;;5.25;2.42;;;;;;;;;;5098517;28;20032;-70
2021/08/25 09:37:07;;;;;;;3.55;2.13;;;;;;;;;;5098398;28;20059;-71
2021/08/25 09:39:34;;;;;;;3.90;2.47;;;29.10;99.90;;;;;;5098281;28;20385;-70
2021/08/25 09:42:04;;;;;;;5.50;2.45;;;29.30;99.90;;;;;;5098525;28;20116;-70
2021/08/25 09:44:30;;;;;;;4.55;2.63;;;29.50;99.90;;;;;;5098711;28;20020;-70
2021/08/25 09:46:55;;;;;;;4.30;2.40;;;29.50;99.90;;;;;;5097308;28;20046;-70
2021/08/25 09:49:21;;;;;;;4.25;2.58;;;29.50;99.90;;;;;;5098642;28;20028;-70
2021/08/25 09:51:47;;;;;;;7.57;2.15;;;29.80;92.20;;;;;;5097829;28;20099;-70
2021/08/25 09:54:16;;;;;;;3.58;2.08;;;30.00;91.70;;;;;;5098137;28;20783;-70
2021/08/25 09:56:43;;;;;;;5.05;2.53;;;29.90;91.30;;;;;;5096645;28;20044;-70
2021/08/25 09:59:14;;;;;;;1.85;1.35;;;30.10;95.70;;;;;;5098222;28;20499;-70
2021/08/25 10:01:41;;;;;;;5.85;2.67;;;30.30;95.00;;;;;;5097904;28;20040;-70
2021/08/25 10:04:13;;;;;;;2.63;2.03;;;30.10;94.10;;;;;;5098128;28;20055;-70
2021/08/25 10:06:42;;;;;;;2.40;2.10;;;30.30;94.00;;;;;;5097931;28;20098;-70
2021/08/25 10:09:10;;;;;;;3.40;1.75;;;30.70;98.40;;;;;;5097690;28;20030;-70
2021/08/25 10:11:42;;;;;;;2.88;1.88;;;31.10;90.50;;;;;;5097674;28;20020;-70
2021/08/25 10:14:19;;;;;;;4.90;2.45;;;31.40;89.30;;;;;;5097676;28;20031;-70
2021/08/25 10:16:51;;;;;;;6.43;2.15;;;31.40;86.00;;;;;;5097603;28;20024;-70
2021/08/25 10:19:26;;;;;;;3.78;1.92;;;30.90;86.40;;;;;;5097919;28;20024;-70
2021/08/25 10:22:02;;;;;;;3.28;2.20;;;31.00;87.60;;;;;;5097676;28;20472;-70
2021/08/25 10:24:48;;;;;;;4.07;2.03;;;31.10;86.20;;;;;;5097374;28;20055;-70
2021/08/25 10:27:14;;;;;;;2.42;1.83;;;31.00;85.70;;;;;;5097374;28;20116;-70
2021/08/25 10:30:01;;;;;;;4.40;2.78;;;30.90;84.30;;;;;;5097450;28;20051;-70
2021/08/25 10:32:50;;;;;;;3.65;2.25;;;30.80;83.80;;;;;;5097268;28;20032;-70
2021/08/25 10:35:29;;;;;;;4.75;1.80;;;30.90;84.50;;;;;;5097069;28;20054;-70
2021/08/25 10:38:19;;;;;;;3.05;2.22;;;31.20;83.50;;;;;;5096945;28;20024;-70
2021/08/25 10:40:46;;;;;;;1.48;1.27;;;31.40;81.70;;;;;;5097528;28;20020;-70
2021/08/25 10:43:38;;;;;;;1.98;1.77;;;31.80;82.20;;;;;;5097318;28;20016;-70
2021/08/25 10:46:06;;;;;;;1.83;1.40;;;32.00;80.20;;;;;;5097329;28;20043;-70
2021/08/25 10:48:38;;;;;;;1.63;1.33;;;32.30;81.40;;;;;;5097100;28;20496;-70
2021/08/25 10:51:04;;;;;;;2.03;1.88;;;32.40;80.80;;;;;;5097248;28;20114;-70
2021/08/25 10:53:33;;;;;;;1.80;1.58;;;32.70;78.70;;;;;;5096774;28;20098;-70
2021/08/25 10:56:31;;;;;;;2.55;1.48;;;32.60;79.00;;;;;;5096883;28;20123;-70
2021/08/25 10:59:02;;;;;;;1.90;1.63;;;32.90;76.10;;;;;;5095370;28;20028;-70
2021/08/25 11:01:44;;;;;;;1.40;1.30;;;32.90;76.50;;;;;;5096946;28;20027;-70
2021/08/25 11:04:12;;;;;;;2.33;1.55;;;32.90;76.70;;;;;;5097019;28;20426;-70
2021/08/25 11:06:43;;;;;;;2.42;1.75;;;32.70;76.20;;;;;;5096979;28;20542;-69
2021/08/25 11:09:23;;;;;;;2.75;1.52;;;32.90;76.40;;;;;;5096847;28;20051;-70
2021/08/25 11:11:55;;;;;;;1.92;1.42;;;32.70;76.80;;;;;;5096898;28;20023;-70
2021/08/25 11:14:29;;;;;;;4.15;1.75;;;33.40;77.40;;;;;;5096981;28;20042;-70
2021/08/25 11:17:15;;;;;;;1.50;1.30;;;34.30;74.80;;;;;;5097060;28;20044;-70
2021/08/25 11:19:47;;;;;;;4.53;1.60;;;34.30;75.20;;;;;;5096712;28;20238;-70
2021/08/25 11:22:22;;;;;;;3.03;2.17;;;34.20;72.10;;;;;;5096647;28;20337;-70
2021/08/25 11:24:53;;;;;;;2.30;1.55;;;33.40;71.30;;;;;;5096449;28;20031;-70
2021/08/25 11:27:22;;;;;;;2.75;1.95;;;33.40;73.80;;;;;;5096919;28;20047;-70
2021/08/25 11:30:26;;;;;;;1.90;1.77;;;33.80;74.40;;;;;;5097087;28;20499;-70
2021/08/25 11:33:11;;;;;;;2.60;1.90;;;34.00;72.90;;;;;;5096555;28;20057;-70
2021/08/25 11:35:44;;;;;;;;;;;34.10;72.10;;;;;;5097010;28;20496;-70
2021/08/25 11:38:16;;;;;;;1.90;1.40;;;34.20;71.00;;;;;;5096267;28;19910;-70
2021/08/25 11:40:46;;;;;;;2.70;1.48;;;34.00;71.00;;;;;;5096618;28;20020;-70
2021/08/25 11:43:17;;;;;;;5.50;2.30;;;33.80;70.30;;;;;;5096630;28;20051;-70
2021/08/25 11:45:45;;;;;;;1.92;1.65;;;33.90;70.40;;;;;;5096562;28;20780;-70
2021/08/25 11:48:11;;;;;;;1.75;1.63;;;33.70;69.80;;;;;;5095224;28;20024;-70
2021/08/25 11:50:47;;;;;;;3.10;1.50;;;33.80;70.00;;;;;;5096501;28;20035;-70
2021/08/25 11:53:15;;;;;;;2.92;1.75;;;33.70;69.70;;;;;;5096070;28;20058;-70
2021/08/25 11:55:42;;;;;;;2.58;1.85;;;33.80;70.70;;;;;;5096066;28;20507;-70
2021/08/25 11:58:27;;;;;;;2.22;1.60;;;34.20;72.10;;;;;;5096490;28;20028;-70
2021/08/25 12:00:55;;;;;;;1.73;1.30;;;34.30;70.40;;;;;;5096572;28;20023;-70
2021/08/25 12:03:21;;;;;;;2.67;1.45;;;34.50;70.50;;;;;;5096417;28;20052;-68
2021/08/25 12:05:52;;;;;;;2.55;1.98;;;34.60;69.60;;;;;;5096564;28;20102;-68
2021/08/25 12:08:19;;;;;;;3.03;1.88;;;35.00;69.90;;;;;;5096348;28;20191;-69
2021/08/25 12:11:05;;;;;;;5.63;2.13;;;34.70;69.30;;;;;;5099520;28;20111;-69
2021/08/25 12:13:38;;;;;;;4.25;1.65;;;34.30;69.80;;;;;;5100114;28;20032;-70
2021/08/25 12:16:11;;;;;;;2.03;1.60;;;34.10;69.40;;;;;;5100035;28;20047;-69
2021/08/25 12:18:48;;;;;;;2.50;1.58;;;34.10;68.40;;;;;;5099984;28;20026;-70
2021/08/25 12:21:14;;;;;;;2.67;1.48;;;34.10;69.30;;;;;;5099919;28;20103;-70
2021/08/25 12:23:57;;;;;;;1.83;1.58;;;34.50;68.90;;;;;;5099666;28;20442;-70
2021/08/25 12:26:24;;;;;;;1.58;1.48;;;35.10;69.00;;;;;;5099845;28;20020;-70
2021/08/25 12:28:50;;;;;;;4.75;1.60;;;35.10;68.30;;;;;;5100203;28;20024;-70
2021/08/25 12:31:27;;;;;;;2.65;1.63;;;35.00;67.00;;;;;;5099607;28;20020;-70
2021/08/25 12:34:07;;;;;;;1.70;1.42;;;35.40;67.80;;;;;;5092662;28;20024;-69
2021/08/25 12:36:35;;;;;;;4.07;1.52;;;35.50;66.90;;;;;;5099812;28;20031;-70
2021/08/25 12:39:08;;;;;;;1.50;1.40;;;35.60;67.20;;;;;;5099224;28;20491;-70
2021/08/25 12:41:36;;;;;;;2.88;1.52;;;35.40;66.20;;;;;;5099769;28;20063;-69
2021/08/25 12:44:03;;;;;;;1.50;1.40;;;34.90;67.10;;;;;;5099483;28;20028;-70
2021/08/25 12:46:29;;;;;;;1.58;1.40;;;35.00;68.10;;;;;;5099693;28;20020;-70
2021/08/25 12:48:54;;;;;;;1.50;1.40;;;34.40;66.80;;;;;;5099331;28;20027;-70
2021/08/25 12:51:20;;;;;;;1.85;1.67;;;34.80;67.70;;;;;;5099715;28;20028;-70